sensor_id;sensor_type;location;lat;lon;timestamp;P1;durP1;ratioP1;P2;durP2;ratioP2
19814;SDS011;10067;53.092;8.800;2023-03-04T00:00:43;28.07;;;5.90;;
19814;SDS011;10067;53.092;8.800;2023-03-04T00:03:11;21.90;;;5.67;;
19814;SDS011;10067;53.092;8.800;2023-03-04T00:05:39;28.30;;;5.80;;
19814;SDS011;10067;53.092;8.800;2023-03-04T00:08:05;24.40;;;5.33;;
19814;SDS011;10067;53.092;8.800;2023-03-04T00:10:32;29.20;;;5.47;;
19814;SDS011;10067;53.092;8.800;2023-03-04T00:12:58;30.50;;;5.97;;
19814;SDS011;10067;53.092;8.800;2023-03-04T00:15:26;30.40;;;7.83;;
19814;SDS011;10067;53.092;8.800;2023-03-04T00:17:53;22.60;;;5.30;;
19814;SDS011;10067;53.092;8.800;2023-03-04T00:20:19;22.20;;;5.87;;
19814;SDS011;10067;53.092;8.800;2023-03-04T00:22:45;31.27;;;6.30;;
19814;SDS011;10067;53.092;8.800;2023-03-04T00:25:12;28.83;;;5.07;;
19814;SDS011;10067;53.092;8.800;2023-03-04T00:27:38;20.03;;;5.67;;
19814;SDS011;10067;53.092;8.800;2023-03-04T00:30:05;21.73;;;5.70;;
19814;SDS011;10067;53.092;8.800;2023-03-04T00:32:33;34.77;;;5.67;;
19814;SDS011;10067;53.092;8.800;2023-03-04T00:34:59;19.90;;;5.07;;
19814;SDS011;10067;53.092;8.800;2023-03-04T00:37:26;28.07;;;5.73;;
19814;SDS011;10067;53.092;8.800;2023-03-04T00:39:52;35.33;;;6.80;;
19814;SDS011;10067;53.092;8.800;2023-03-04T00:42:19;30.13;;;5.57;;
19814;SDS011;10067;53.092;8.800;2023-03-04T00:44:45;27.73;;;5.53;;
19814;SDS011;10067;53.092;8.800;2023-03-04T00:47:13;26.00;;;6.40;;
19814;SDS011;10067;53.092;8.800;2023-03-04T00:49:41;31.00;;;5.23;;
19814;SDS011;10067;53.092;8.800;2023-03-04T00:52:07;26.73;;;5.20;;
19814;SDS011;10067;53.092;8.800;2023-03-04T00:54:34;22.40;;;5.17;;
19814;SDS011;10067;53.092;8.800;2023-03-04T00:57:01;24.37;;;4.97;;
19814;SDS011;10067;53.092;8.800;2023-03-04T00:59:27;25.33;;;5.13;;
19814;SDS011;10067;53.092;8.800;2023-03-04T01:01:53;25.17;;;4.63;;
19814;SDS011;10067;53.092;8.800;2023-03-04T01:04:20;19.80;;;5.27;;
19814;SDS011;10067;53.092;8.800;2023-03-04T01:06:48;21.40;;;4.40;;
19814;SDS011;10067;53.092;8.800;2023-03-04T01:09:14;24.37;;;4.77;;
19814;SDS011;10067;53.092;8.800;2023-03-04T01:11:40;17.30;;;4.10;;
19814;SDS011;10067;53.092;8.800;2023-03-04T01:14:07;20.23;;;4.50;;
19814;SDS011;10067;53.092;8.800;2023-03-04T01:16:33;20.03;;;4.13;;
19814;SDS011;10067;53.092;8.800;2023-03-04T01:19:00;18.37;;;4.00;;
19814;SDS011;10067;53.092;8.800;2023-03-04T01:21:26;18.57;;;4.53;;
19814;SDS011;10067;53.092;8.800;2023-03-04T01:23:54;30.93;;;4.13;;
19814;SDS011;10067;53.092;8.800;2023-03-04T01:26:20;16.13;;;3.50;;
19814;SDS011;10067;53.092;8.800;2023-03-04T01:28:47;15.50;;;3.27;;
19814;SDS011;10067;53.092;8.800;2023-03-04T01:31:13;21.40;;;4.23;;
19814;SDS011;10067;53.092;8.800;2023-03-04T01:33:39;22.53;;;3.83;;
19814;SDS011;10067;53.092;8.800;2023-03-04T01:36:06;17.50;;;3.37;;
19814;SDS011;10067;53.092;8.800;2023-03-04T01:38:32;15.37;;;3.13;;
19814;SDS011;10067;53.092;8.800;2023-03-04T01:41:00;20.23;;;3.57;;
19814;SDS011;10067;53.092;8.800;2023-03-04T01:43:28;22.13;;;3.17;;
19814;SDS011;10067;53.092;8.800;2023-03-04T01:45:55;16.90;;;2.93;;
19814;SDS011;10067;53.092;8.800;2023-03-04T01:48:23;18.37;;;2.77;;
19814;SDS011;10067;53.092;8.800;2023-03-04T01:50:50;26.03;;;3.60;;
19814;SDS011;10067;53.092;8.800;2023-03-04T01:53:19;19.10;;;2.87;;
19814;SDS011;10067;53.092;8.800;2023-03-04T01:55:46;26.30;;;4.03;;
19814;SDS011;10067;53.092;8.800;2023-03-04T01:58:14;20.30;;;3.03;;
19814;SDS011;10067;53.092;8.800;2023-03-04T02:00:40;20.17;;;3.90;;
19814;SDS011;10067;53.092;8.800;2023-03-04T02:03:09;23.50;;;3.33;;
19814;SDS011;10067;53.092;8.800;2023-03-04T02:05:37;13.73;;;3.20;;
19814;SDS011;10067;53.092;8.800;2023-03-04T02:08:04;11.57;;;2.53;;
19814;SDS011;10067;53.092;8.800;2023-03-04T02:10:31;12.33;;;2.17;;
19814;SDS011;10067;53.092;8.800;2023-03-04T02:12:59;10.27;;;1.90;;
19814;SDS011;10067;53.092;8.800;2023-03-04T02:15:27;12.10;;;2.00;;
19814;SDS011;10067;53.092;8.800;2023-03-04T02:17:53;10.60;;;1.90;;
19814;SDS011;10067;53.092;8.800;2023-03-04T02:20:34;14.57;;;2.13;;
19814;SDS011;10067;53.092;8.800;2023-03-04T02:23:06;11.97;;;2.10;;
19814;SDS011;10067;53.092;8.800;2023-03-04T02:25:35;17.00;;;2.63;;
19814;SDS011;10067;53.092;8.800;2023-03-04T02:28:04;11.67;;;3.00;;
19814;SDS011;10067;53.092;8.800;2023-03-04T02:30:31;17.67;;;3.97;;
19814;SDS011;10067;53.092;8.800;2023-03-04T02:32:58;22.37;;;4.77;;
19814;SDS011;10067;53.092;8.800;2023-03-04T02:35:24;15.83;;;4.60;;
19814;SDS011;10067;53.092;8.800;2023-03-04T02:37:50;22.33;;;4.83;;
19814;SDS011;10067;53.092;8.800;2023-03-04T02:40:23;19.40;;;4.10;;
19814;SDS011;10067;53.092;8.800;2023-03-04T02:42:52;21.90;;;4.43;;
19814;SDS011;10067;53.092;8.800;2023-03-04T02:45:30;28.83;;;4.47;;
19814;SDS011;10067;53.092;8.800;2023-03-04T02:47:59;17.47;;;3.23;;
19814;SDS011;10067;53.092;8.800;2023-03-04T02:50:25;22.40;;;4.20;;
19814;SDS011;10067;53.092;8.800;2023-03-04T02:52:53;16.83;;;3.83;;
19814;SDS011;10067;53.092;8.800;2023-03-04T02:55:19;18.57;;;3.97;;
19814;SDS011;10067;53.092;8.800;2023-03-04T02:57:46;22.77;;;4.87;;
19814;SDS011;10067;53.092;8.800;2023-03-04T03:00:12;20.03;;;3.60;;
19814;SDS011;10067;53.092;8.800;2023-03-04T03:02:40;17.87;;;3.23;;
19814;SDS011;10067;53.092;8.800;2023-03-04T03:05:07;23.83;;;3.70;;
19814;SDS011;10067;53.092;8.800;2023-03-04T03:07:33;17.10;;;3.60;;
19814;SDS011;10067;53.092;8.800;2023-03-04T03:09:59;14.07;;;3.70;;
19814;SDS011;10067;53.092;8.800;2023-03-04T03:12:26;16.20;;;3.73;;
19814;SDS011;10067;53.092;8.800;2023-03-04T03:14:52;21.07;;;3.80;;
19814;SDS011;10067;53.092;8.800;2023-03-04T03:17:19;24.47;;;4.50;;
19814;SDS011;10067;53.092;8.800;2023-03-04T03:19:46;20.40;;;3.53;;
19814;SDS011;10067;53.092;8.800;2023-03-04T03:22:13;16.53;;;3.73;;
19814;SDS011;10067;53.092;8.800;2023-03-04T03:24:39;23.27;;;3.50;;
19814;SDS011;10067;53.092;8.800;2023-03-04T03:27:05;15.33;;;3.40;;
19814;SDS011;10067;53.092;8.800;2023-03-04T03:29:32;11.33;;;2.87;;
19814;SDS011;10067;53.092;8.800;2023-03-04T03:31:58;20.80;;;2.73;;
19814;SDS011;10067;53.092;8.800;2023-03-04T03:34:25;11.73;;;2.60;;
19814;SDS011;10067;53.092;8.800;2023-03-04T03:36:52;12.53;;;2.50;;
19814;SDS011;10067;53.092;8.800;2023-03-04T03:39:19;13.60;;;2.23;;
19814;SDS011;10067;53.092;8.800;2023-03-04T03:41:46;17.63;;;3.07;;
19814;SDS011;10067;53.092;8.800;2023-03-04T03:44:12;16.20;;;2.63;;
19814;SDS011;10067;53.092;8.800;2023-03-04T03:46:39;14.10;;;2.63;;
19814;SDS011;10067;53.092;8.800;2023-03-04T03:49:05;16.97;;;2.50;;
19814;SDS011;10067;53.092;8.800;2023-03-04T03:51:31;12.33;;;2.30;;
19814;SDS011;10067;53.092;8.800;2023-03-04T03:53:59;17.00;;;3.00;;
19814;SDS011;10067;53.092;8.800;2023-03-04T03:56:25;15.50;;;2.90;;
19814;SDS011;10067;53.092;8.800;2023-03-04T03:58:52;14.40;;;3.23;;
19814;SDS011;10067;53.092;8.800;2023-03-04T04:01:18;13.80;;;2.33;;
19814;SDS011;10067;53.092;8.800;2023-03-04T04:03:45;17.40;;;2.60;;
19814;SDS011;10067;53.092;8.800;2023-03-04T04:06:11;14.43;;;2.50;;
19814;SDS011;10067;53.092;8.800;2023-03-04T04:08:37;19.83;;;3.17;;
19814;SDS011;10067;53.092;8.800;2023-03-04T04:11:07;13.60;;;2.40;;
19814;SDS011;10067;53.092;8.800;2023-03-04T04:13:34;15.60;;;2.67;;
19814;SDS011;10067;53.092;8.800;2023-03-04T04:16:00;16.70;;;2.63;;
19814;SDS011;10067;53.092;8.800;2023-03-04T04:18:27;18.43;;;2.43;;
19814;SDS011;10067;53.092;8.800;2023-03-04T04:20:53;18.30;;;2.77;;
19814;SDS011;10067;53.092;8.800;2023-03-04T04:23:19;15.23;;;2.40;;
19814;SDS011;10067;53.092;8.800;2023-03-04T04:25:46;15.07;;;2.73;;
19814;SDS011;10067;53.092;8.800;2023-03-04T04:28:14;10.57;;;2.07;;
19814;SDS011;10067;53.092;8.800;2023-03-04T04:30:40;18.77;;;2.60;;
19814;SDS011;10067;53.092;8.800;2023-03-04T04:33:07;15.30;;;2.70;;
19814;SDS011;10067;53.092;8.800;2023-03-04T04:35:34;22.63;;;3.23;;
19814;SDS011;10067;53.092;8.800;2023-03-04T04:38:02;15.17;;;2.37;;
19814;SDS011;10067;53.092;8.800;2023-03-04T04:40:29;12.83;;;2.63;;
19814;SDS011;10067;53.092;8.800;2023-03-04T04:42:55;15.10;;;2.60;;
19814;SDS011;10067;53.092;8.800;2023-03-04T04:45:23;22.70;;;2.53;;
19814;SDS011;10067;53.092;8.800;2023-03-04T04:47:50;14.90;;;2.50;;
19814;SDS011;10067;53.092;8.800;2023-03-04T04:50:16;15.37;;;2.20;;
19814;SDS011;10067;53.092;8.800;2023-03-04T04:52:43;13.87;;;2.50;;
19814;SDS011;10067;53.092;8.800;2023-03-04T04:55:09;19.20;;;2.20;;
19814;SDS011;10067;53.092;8.800;2023-03-04T04:57:36;22.50;;;2.70;;
19814;SDS011;10067;53.092;8.800;2023-03-04T05:00:03;12.27;;;2.03;;
19814;SDS011;10067;53.092;8.800;2023-03-04T05:02:31;13.60;;;2.50;;
19814;SDS011;10067;53.092;8.800;2023-03-04T05:05:00;12.43;;;2.53;;
19814;SDS011;10067;53.092;8.800;2023-03-04T05:07:26;13.70;;;2.43;;
19814;SDS011;10067;53.092;8.800;2023-03-04T05:09:53;11.47;;;2.03;;
19814;SDS011;10067;53.092;8.800;2023-03-04T05:12:19;16.37;;;2.33;;
19814;SDS011;10067;53.092;8.800;2023-03-04T05:14:45;7.73;;;2.20;;
19814;SDS011;10067;53.092;8.800;2023-03-04T05:17:12;13.30;;;2.67;;
19814;SDS011;10067;53.092;8.800;2023-03-04T05:19:40;19.60;;;2.70;;
19814;SDS011;10067;53.092;8.800;2023-03-04T05:22:06;12.20;;;2.50;;
19814;SDS011;10067;53.092;8.800;2023-03-04T05:24:32;15.87;;;3.60;;
19814;SDS011;10067;53.092;8.800;2023-03-04T05:26:59;23.13;;;3.63;;
19814;SDS011;10067;53.092;8.800;2023-03-04T05:29:26;13.63;;;3.57;;
19814;SDS011;10067;53.092;8.800;2023-03-04T05:31:52;19.17;;;3.77;;
19814;SDS011;10067;53.092;8.800;2023-03-04T05:34:19;13.93;;;4.40;;
19814;SDS011;10067;53.092;8.800;2023-03-04T05:36:46;11.63;;;3.27;;
19814;SDS011;10067;53.092;8.800;2023-03-04T05:39:13;17.27;;;3.53;;
19814;SDS011;10067;53.092;8.800;2023-03-04T05:41:39;10.53;;;4.03;;
19814;SDS011;10067;53.092;8.800;2023-03-04T05:44:06;15.17;;;5.10;;
19814;SDS011;10067;53.092;8.800;2023-03-04T05:46:32;16.10;;;4.80;;
19814;SDS011;10067;53.092;8.800;2023-03-04T05:48:58;20.50;;;5.97;;
19814;SDS011;10067;53.092;8.800;2023-03-04T05:51:25;15.17;;;4.73;;
19814;SDS011;10067;53.092;8.800;2023-03-04T05:53:52;16.13;;;5.40;;
19814;SDS011;10067;53.092;8.800;2023-03-04T05:56:19;15.33;;;5.20;;
19814;SDS011;10067;53.092;8.800;2023-03-04T05:58:45;24.37;;;8.93;;
19814;SDS011;10067;53.092;8.800;2023-03-04T06:01:12;21.50;;;8.60;;
19814;SDS011;10067;53.092;8.800;2023-03-04T06:03:39;33.77;;;14.37;;
19814;SDS011;10067;53.092;8.800;2023-03-04T06:06:07;26.97;;;10.40;;
19814;SDS011;10067;53.092;8.800;2023-03-04T06:08:33;26.40;;;10.50;;
19814;SDS011;10067;53.092;8.800;2023-03-04T06:11:01;26.73;;;11.90;;
19814;SDS011;10067;53.092;8.800;2023-03-04T06:13:29;32.90;;;12.63;;
19814;SDS011;10067;53.092;8.800;2023-03-04T06:15:56;27.20;;;11.57;;
19814;SDS011;10067;53.092;8.800;2023-03-04T06:18:23;27.70;;;11.67;;
19814;SDS011;10067;53.092;8.800;2023-03-04T06:20:49;26.67;;;12.10;;
19814;SDS011;10067;53.092;8.800;2023-03-04T06:23:16;24.43;;;9.03;;
19814;SDS011;10067;53.092;8.800;2023-03-04T06:25:42;19.97;;;8.07;;
19814;SDS011;10067;53.092;8.800;2023-03-04T06:28:10;26.93;;;12.00;;
19814;SDS011;10067;53.092;8.800;2023-03-04T06:30:36;23.27;;;9.67;;
19814;SDS011;10067;53.092;8.800;2023-03-04T06:33:03;26.47;;;10.07;;
19814;SDS011;10067;53.092;8.800;2023-03-04T06:35:29;27.00;;;11.77;;
19814;SDS011;10067;53.092;8.800;2023-03-04T06:37:56;29.93;;;14.73;;
19814;SDS011;10067;53.092;8.800;2023-03-04T06:40:22;35.87;;;16.47;;
19814;SDS011;10067;53.092;8.800;2023-03-04T06:42:48;26.70;;;13.63;;
19814;SDS011;10067;53.092;8.800;2023-03-04T06:45:16;19.00;;;7.93;;
19814;SDS011;10067;53.092;8.800;2023-03-04T06:47:42;18.93;;;6.97;;
19814;SDS011;10067;53.092;8.800;2023-03-04T06:50:10;12.90;;;4.43;;
19814;SDS011;10067;53.092;8.800;2023-03-04T06:52:36;7.87;;;3.90;;
19814;SDS011;10067;53.092;8.800;2023-03-04T06:55:03;11.90;;;4.10;;
19814;SDS011;10067;53.092;8.800;2023-03-04T06:57:29;9.00;;;3.63;;
19814;SDS011;10067;53.092;8.800;2023-03-04T06:59:56;8.73;;;3.00;;
19814;SDS011;10067;53.092;8.800;2023-03-04T07:02:24;11.13;;;3.27;;
19814;SDS011;10067;53.092;8.800;2023-03-04T07:04:52;8.90;;;2.10;;
19814;SDS011;10067;53.092;8.800;2023-03-04T07:07:18;7.57;;;2.20;;
19814;SDS011;10067;53.092;8.800;2023-03-04T07:09:47;10.87;;;2.50;;
19814;SDS011;10067;53.092;8.800;2023-03-04T07:12:14;11.23;;;3.20;;
19814;SDS011;10067;53.092;8.800;2023-03-04T07:14:40;17.23;;;5.50;;
19814;SDS011;10067;53.092;8.800;2023-03-04T07:17:07;20.13;;;4.20;;
19814;SDS011;10067;53.092;8.800;2023-03-04T07:19:35;16.70;;;3.33;;
19814;SDS011;10067;53.092;8.800;2023-03-04T07:22:02;14.10;;;2.87;;
19814;SDS011;10067;53.092;8.800;2023-03-04T07:24:29;15.30;;;2.70;;
19814;SDS011;10067;53.092;8.800;2023-03-04T07:26:55;21.03;;;3.57;;
19814;SDS011;10067;53.092;8.800;2023-03-04T07:29:22;19.23;;;3.87;;
19814;SDS011;10067;53.092;8.800;2023-03-04T07:31:48;24.47;;;3.47;;
19814;SDS011;10067;53.092;8.800;2023-03-04T07:34:15;21.40;;;3.73;;
19814;SDS011;10067;53.092;8.800;2023-03-04T07:36:43;13.30;;;2.87;;
19814;SDS011;10067;53.092;8.800;2023-03-04T07:39:10;23.47;;;3.80;;
19814;SDS011;10067;53.092;8.800;2023-03-04T07:41:38;16.90;;;2.87;;
19814;SDS011;10067;53.092;8.800;2023-03-04T07:44:09;21.07;;;3.40;;
19814;SDS011;10067;53.092;8.800;2023-03-04T07:46:36;24.67;;;3.37;;
19814;SDS011;10067;53.092;8.800;2023-03-04T07:49:02;22.03;;;4.27;;
19814;SDS011;10067;53.092;8.800;2023-03-04T07:51:29;18.50;;;3.83;;
19814;SDS011;10067;53.092;8.800;2023-03-04T07:53:57;15.37;;;3.43;;
19814;SDS011;10067;53.092;8.800;2023-03-04T07:56:25;26.40;;;4.13;;
19814;SDS011;10067;53.092;8.800;2023-03-04T07:58:52;17.47;;;3.37;;
19814;SDS011;10067;53.092;8.800;2023-03-04T08:01:19;27.20;;;4.27;;
19814;SDS011;10067;53.092;8.800;2023-03-04T08:03:47;17.60;;;3.73;;
19814;SDS011;10067;53.092;8.800;2023-03-04T08:06:14;28.03;;;4.00;;
19814;SDS011;10067;53.092;8.800;2023-03-04T08:08:41;25.53;;;4.80;;
19814;SDS011;10067;53.092;8.800;2023-03-04T08:11:10;27.40;;;4.30;;
19814;SDS011;10067;53.092;8.800;2023-03-04T08:13:37;32.90;;;4.83;;
19814;SDS011;10067;53.092;8.800;2023-03-04T08:16:04;34.03;;;4.60;;
19814;SDS011;10067;53.092;8.800;2023-03-04T08:18:30;40.43;;;6.23;;
19814;SDS011;10067;53.092;8.800;2023-03-04T08:20:57;40.97;;;5.60;;
19814;SDS011;10067;53.092;8.800;2023-03-04T08:23:24;23.83;;;4.77;;
19814;SDS011;10067;53.092;8.800;2023-03-04T08:25:50;23.90;;;4.40;;
19814;SDS011;10067;53.092;8.800;2023-03-04T08:28:18;32.10;;;5.10;;
19814;SDS011;10067;53.092;8.800;2023-03-04T08:30:50;32.20;;;5.20;;
19814;SDS011;10067;53.092;8.800;2023-03-04T08:33:17;26.43;;;5.50;;
19814;SDS011;10067;53.092;8.800;2023-03-04T08:35:43;32.63;;;5.37;;
19814;SDS011;10067;53.092;8.800;2023-03-04T08:38:10;31.13;;;6.10;;
19814;SDS011;10067;53.092;8.800;2023-03-04T08:40:36;28.43;;;4.03;;
19814;SDS011;10067;53.092;8.800;2023-03-04T08:43:02;29.23;;;5.97;;
19814;SDS011;10067;53.092;8.800;2023-03-04T08:45:30;34.63;;;5.67;;
19814;SDS011;10067;53.092;8.800;2023-03-04T08:47:56;27.20;;;3.87;;
19814;SDS011;10067;53.092;8.800;2023-03-04T08:50:23;16.30;;;3.47;;
19814;SDS011;10067;53.092;8.800;2023-03-04T08:52:51;17.83;;;3.50;;
19814;SDS011;10067;53.092;8.800;2023-03-04T08:55:17;14.37;;;2.80;;
19814;SDS011;10067;53.092;8.800;2023-03-04T08:57:44;19.40;;;3.53;;
19814;SDS011;10067;53.092;8.800;2023-03-04T09:00:11;15.03;;;2.83;;
19814;SDS011;10067;53.092;8.800;2023-03-04T09:02:39;13.83;;;2.70;;
19814;SDS011;10067;53.092;8.800;2023-03-04T09:05:07;16.40;;;2.77;;
19814;SDS011;10067;53.092;8.800;2023-03-04T09:07:33;11.90;;;2.43;;
19814;SDS011;10067;53.092;8.800;2023-03-04T09:09:59;20.67;;;3.10;;
19814;SDS011;10067;53.092;8.800;2023-03-04T09:12:26;18.42;;;2.65;;
19814;SDS011;10067;53.092;8.800;2023-03-04T09:14:52;18.10;;;3.50;;
19814;SDS011;10067;53.092;8.800;2023-03-04T09:17:19;27.60;;;4.30;;
19814;SDS011;10067;53.092;8.800;2023-03-04T09:19:46;21.63;;;3.60;;
19814;SDS011;10067;53.092;8.800;2023-03-04T09:22:13;23.83;;;4.10;;
19814;SDS011;10067;53.092;8.800;2023-03-04T09:24:39;18.10;;;3.53;;
19814;SDS011;10067;53.092;8.800;2023-03-04T09:27:07;14.57;;;3.30;;
19814;SDS011;10067;53.092;8.800;2023-03-04T09:29:34;29.80;;;4.97;;
19814;SDS011;10067;53.092;8.800;2023-03-04T09:32:00;24.63;;;3.50;;
19814;SDS011;10067;53.092;8.800;2023-03-04T09:34:27;20.60;;;3.57;;
19814;SDS011;10067;53.092;8.800;2023-03-04T09:36:54;19.13;;;4.13;;
19814;SDS011;10067;53.092;8.800;2023-03-04T09:39:21;23.48;;;4.18;;
19814;SDS011;10067;53.092;8.800;2023-03-04T09:41:48;22.95;;;4.00;;
19814;SDS011;10067;53.092;8.800;2023-03-04T09:44:20;21.63;;;4.03;;
19814;SDS011;10067;53.092;8.800;2023-03-04T09:46:48;22.07;;;3.90;;
19814;SDS011;10067;53.092;8.800;2023-03-04T09:49:15;21.35;;;3.67;;
19814;SDS011;10067;53.092;8.800;2023-03-04T09:51:44;21.83;;;3.37;;
19814;SDS011;10067;53.092;8.800;2023-03-04T09:54:15;24.13;;;4.57;;
19814;SDS011;10067;53.092;8.800;2023-03-04T09:56:43;23.40;;;4.22;;
19814;SDS011;10067;53.092;8.800;2023-03-04T09:59:13;27.53;;;4.20;;
19814;SDS011;10067;53.092;8.800;2023-03-04T10:01:41;19.30;;;4.30;;
19814;SDS011;10067;53.092;8.800;2023-03-04T10:04:11;17.27;;;3.87;;
19814;SDS011;10067;53.092;8.800;2023-03-04T10:06:39;22.25;;;4.80;;
19814;SDS011;10067;53.092;8.800;2023-03-04T10:09:09;23.92;;;4.68;;
19814;SDS011;10067;53.092;8.800;2023-03-04T10:11:38;17.23;;;3.30;;
19814;SDS011;10067;53.092;8.800;2023-03-04T10:16:52;21.17;;;4.00;;
19814;SDS011;10067;53.092;8.800;2023-03-04T10:19:21;25.10;;;4.00;;
19814;SDS011;10067;53.092;8.800;2023-03-04T10:21:50;17.77;;;4.10;;
19814;SDS011;10067;53.092;8.800;2023-03-04T10:24:17;20.27;;;4.32;;
19814;SDS011;10067;53.092;8.800;2023-03-04T10:26:45;13.98;;;3.00;;
19814;SDS011;10067;53.092;8.800;2023-03-04T10:29:12;22.05;;;4.30;;
19814;SDS011;10067;53.092;8.800;2023-03-04T10:31:40;25.42;;;4.55;;
19814;SDS011;10067;53.092;8.800;2023-03-04T10:34:08;20.67;;;4.30;;
19814;SDS011;10067;53.092;8.800;2023-03-04T10:36:37;24.27;;;4.78;;
19814;SDS011;10067;53.092;8.800;2023-03-04T10:39:05;20.73;;;4.20;;
19814;SDS011;10067;53.092;8.800;2023-03-04T10:41:32;16.70;;;3.25;;
19814;SDS011;10067;53.092;8.800;2023-03-04T10:44:02;17.90;;;3.47;;
19814;SDS011;10067;53.092;8.800;2023-03-04T10:46:28;20.98;;;3.58;;
19814;SDS011;10067;53.092;8.800;2023-03-04T10:48:55;18.65;;;3.50;;
19814;SDS011;10067;53.092;8.800;2023-03-04T10:51:22;27.33;;;4.20;;
19814;SDS011;10067;53.092;8.800;2023-03-04T10:53:49;19.77;;;3.85;;
19814;SDS011;10067;53.092;8.800;2023-03-04T10:56:29;17.08;;;4.15;;
19814;SDS011;10067;53.092;8.800;2023-03-04T10:58:56;25.58;;;4.45;;
19814;SDS011;10067;53.092;8.800;2023-03-04T11:01:44;14.52;;;3.47;;
19814;SDS011;10067;53.092;8.800;2023-03-04T11:04:14;16.58;;;4.15;;
19814;SDS011;10067;53.092;8.800;2023-03-04T11:06:42;18.60;;;3.60;;
19814;SDS011;10067;53.092;8.800;2023-03-04T11:09:16;14.10;;;3.72;;
19814;SDS011;10067;53.092;8.800;2023-03-04T11:11:45;16.05;;;3.40;;
19814;SDS011;10067;53.092;8.800;2023-03-04T11:14:14;24.23;;;4.00;;
19814;SDS011;10067;53.092;8.800;2023-03-04T11:16:44;25.05;;;4.72;;
19814;SDS011;10067;53.092;8.800;2023-03-04T11:19:18;22.20;;;4.15;;
19814;SDS011;10067;53.092;8.800;2023-03-04T11:21:46;15.77;;;4.22;;
19814;SDS011;10067;53.092;8.800;2023-03-04T11:24:13;28.17;;;5.32;;
19814;SDS011;10067;53.092;8.800;2023-03-04T11:26:41;16.80;;;3.80;;
19814;SDS011;10067;53.092;8.800;2023-03-04T11:29:11;25.20;;;4.43;;
19814;SDS011;10067;53.092;8.800;2023-03-04T11:31:41;18.58;;;4.53;;
19814;SDS011;10067;53.092;8.800;2023-03-04T11:34:11;20.92;;;4.50;;
19814;SDS011;10067;53.092;8.800;2023-03-04T11:36:45;20.20;;;4.38;;
19814;SDS011;10067;53.092;8.800;2023-03-04T11:39:19;22.35;;;4.25;;
19814;SDS011;10067;53.092;8.800;2023-03-04T11:41:49;19.13;;;3.88;;
19814;SDS011;10067;53.092;8.800;2023-03-04T11:44:17;23.95;;;4.05;;
19814;SDS011;10067;53.092;8.800;2023-03-04T11:46:59;15.85;;;3.42;;
19814;SDS011;10067;53.092;8.800;2023-03-04T11:49:32;13.02;;;3.17;;
19814;SDS011;10067;53.092;8.800;2023-03-04T11:52:04;21.55;;;4.05;;
19814;SDS011;10067;53.092;8.800;2023-03-04T11:54:34;19.65;;;4.70;;
19814;SDS011;10067;53.092;8.800;2023-03-04T11:57:05;25.85;;;4.07;;
19814;SDS011;10067;53.092;8.800;2023-03-04T11:59:39;21.58;;;3.83;;
19814;SDS011;10067;53.092;8.800;2023-03-04T12:02:11;24.02;;;3.97;;
19814;SDS011;10067;53.092;8.800;2023-03-04T12:04:48;18.80;;;3.95;;
19814;SDS011;10067;53.092;8.800;2023-03-04T12:07:23;18.77;;;4.30;;
19814;SDS011;10067;53.092;8.800;2023-03-04T12:09:56;22.48;;;4.55;;
19814;SDS011;10067;53.092;8.800;2023-03-04T12:12:29;24.48;;;4.63;;
19814;SDS011;10067;53.092;8.800;2023-03-04T12:15:06;18.25;;;4.20;;
19814;SDS011;10067;53.092;8.800;2023-03-04T12:17:40;22.70;;;3.97;;
19814;SDS011;10067;53.092;8.800;2023-03-04T12:20:22;26.02;;;4.60;;
19814;SDS011;10067;53.092;8.800;2023-03-04T12:22:53;19.52;;;4.05;;
19814;SDS011;10067;53.092;8.800;2023-03-04T12:25:30;24.17;;;4.10;;
19814;SDS011;10067;53.092;8.800;2023-03-04T12:28:00;23.40;;;5.17;;
19814;SDS011;10067;53.092;8.800;2023-03-04T12:30:38;22.27;;;4.73;;
19814;SDS011;10067;53.092;8.800;2023-03-04T12:33:11;27.47;;;4.50;;
19814;SDS011;10067;53.092;8.800;2023-03-04T12:35:43;27.60;;;4.23;;
19814;SDS011;10067;53.092;8.800;2023-03-04T12:38:16;18.40;;;4.00;;
19814;SDS011;10067;53.092;8.800;2023-03-04T12:40:47;24.30;;;4.57;;
19814;SDS011;10067;53.092;8.800;2023-03-04T12:43:20;24.67;;;4.40;;
19814;SDS011;10067;53.092;8.800;2023-03-04T12:45:53;21.10;;;4.05;;
19814;SDS011;10067;53.092;8.800;2023-03-04T12:48:26;26.10;;;4.93;;
19814;SDS011;10067;53.092;8.800;2023-03-04T12:50:58;30.70;;;5.35;;
19814;SDS011;10067;53.092;8.800;2023-03-04T12:53:29;31.55;;;5.93;;
19814;SDS011;10067;53.092;8.800;2023-03-04T12:55:58;24.20;;;4.90;;
19814;SDS011;10067;53.092;8.800;2023-03-04T12:58:25;22.63;;;4.32;;
19814;SDS011;10067;53.092;8.800;2023-03-04T13:00:54;27.27;;;5.00;;
19814;SDS011;10067;53.092;8.800;2023-03-04T13:03:25;21.45;;;4.60;;
19814;SDS011;10067;53.092;8.800;2023-03-04T13:05:55;29.75;;;5.55;;
19814;SDS011;10067;53.092;8.800;2023-03-04T13:08:30;23.65;;;4.72;;
19814;SDS011;10067;53.092;8.800;2023-03-04T13:11:02;28.33;;;4.88;;
19814;SDS011;10067;53.092;8.800;2023-03-04T13:13:33;24.83;;;4.82;;
19814;SDS011;10067;53.092;8.800;2023-03-04T13:16:00;32.25;;;6.28;;
19814;SDS011;10067;53.092;8.800;2023-03-04T13:18:30;27.58;;;5.70;;
19814;SDS011;10067;53.092;8.800;2023-03-04T13:21:04;26.90;;;4.60;;
19814;SDS011;10067;53.092;8.800;2023-03-04T13:23:33;23.03;;;4.40;;
19814;SDS011;10067;53.092;8.800;2023-03-04T13:26:22;24.37;;;3.80;;
19814;SDS011;10067;53.092;8.800;2023-03-04T13:28:52;21.37;;;4.07;;
19814;SDS011;10067;53.092;8.800;2023-03-04T13:31:21;21.00;;;4.43;;
19814;SDS011;10067;53.092;8.800;2023-03-04T13:33:58;24.20;;;4.15;;
19814;SDS011;10067;53.092;8.800;2023-03-04T13:36:26;20.17;;;4.75;;
19814;SDS011;10067;53.092;8.800;2023-03-04T13:38:58;20.23;;;3.43;;
19814;SDS011;10067;53.092;8.800;2023-03-04T13:41:28;15.03;;;3.67;;
19814;SDS011;10067;53.092;8.800;2023-03-04T13:43:56;21.07;;;3.50;;
19814;SDS011;10067;53.092;8.800;2023-03-04T13:46:30;20.00;;;4.23;;
19814;SDS011;10067;53.092;8.800;2023-03-04T13:49:05;25.37;;;4.33;;
19814;SDS011;10067;53.092;8.800;2023-03-04T13:51:33;24.03;;;5.13;;
19814;SDS011;10067;53.092;8.800;2023-03-04T13:54:11;22.83;;;4.73;;
19814;SDS011;10067;53.092;8.800;2023-03-04T13:56:38;22.20;;;4.63;;
19814;SDS011;10067;53.092;8.800;2023-03-04T14:02:02;18.50;;;4.35;;
19814;SDS011;10067;53.092;8.800;2023-03-04T14:04:35;21.50;;;3.40;;
19814;SDS011;10067;53.092;8.800;2023-03-04T14:07:03;25.27;;;4.47;;
19814;SDS011;10067;53.092;8.800;2023-03-04T14:09:46;15.00;;;3.20;;
19814;SDS011;10067;53.092;8.800;2023-03-04T14:12:18;27.27;;;5.10;;
19814;SDS011;10067;53.092;8.800;2023-03-04T14:14:46;19.07;;;3.83;;
19814;SDS011;10067;53.092;8.800;2023-03-04T14:17:14;13.60;;;2.93;;
19814;SDS011;10067;53.092;8.800;2023-03-04T14:19:43;18.80;;;3.33;;
19814;SDS011;10067;53.092;8.800;2023-03-04T14:22:19;18.27;;;3.93;;
19814;SDS011;10067;53.092;8.800;2023-03-04T14:24:55;22.67;;;3.87;;
19814;SDS011;10067;53.092;8.800;2023-03-04T14:27:21;17.93;;;3.73;;
19814;SDS011;10067;53.092;8.800;2023-03-04T14:29:53;25.40;;;8.07;;
19814;SDS011;10067;53.092;8.800;2023-03-04T14:32:19;20.63;;;4.37;;
19814;SDS011;10067;53.092;8.800;2023-03-04T14:34:47;24.67;;;8.50;;
19814;SDS011;10067;53.092;8.800;2023-03-04T14:37:18;21.40;;;6.87;;
19814;SDS011;10067;53.092;8.800;2023-03-04T14:39:45;17.33;;;7.37;;
19814;SDS011;10067;53.092;8.800;2023-03-04T14:42:14;21.27;;;5.07;;
19814;SDS011;10067;53.092;8.800;2023-03-04T14:44:43;22.53;;;7.87;;